18°C Temp
15°C Dewpoint
83% Humidity
Temperature
11 KM/H
7 MPH
6 KTS
160°
South South
East

Wind Speed
Mostly Scattered
Clouds
Pressure 1022.92 (hPa) - 30.21 (in)
Visibility 6.2 (mi) - 10.0 (km)

Current Conditions
LIMJ
Location 7(km)
Metar :LIMJ 301250Z 16006KT 9999 SCT020 18/15 Q1023
Fri 30th October 14:50 pm

Airport
  Metar Aviation API Data Provided by https://www.checkwx.com/ PHP scripts by weather34.com ©2020